Time;durP1;ratioP1;P1;durP2;ratioP2;P2;SDS_P1;SDS_P2;PMS_P1;PMS_P2;Temp;Humidity;BMP_temperature;BMP_pressure;BME280_temperature;BME280_humidity;BME280_pressure;Samples;Min_cycle;Max_cycle;Signal;HPM_P1;HPM_P2
2020/12/02 00:02:20;;;;;;;1.10;1.10;;;0.60;44.90;;;;;;5067779;28;20552;-86
2020/12/02 00:04:47;;;;;;;1.00;1.00;;;0.50;47.70;;;;;;5071200;28;20024;-86
2020/12/02 00:07:13;;;;;;;0.45;0.45;;;0.60;56.70;;;;;;5086166;28;20428;-86
2020/12/02 00:09:38;;;;;;;1.48;1.35;;;0.70;68.10;;;;;;5069139;28;20032;-86
2020/12/02 00:12:04;;;;;;;0.20;0.20;;;0.80;94.00;;;;;;5070486;28;20036;-87
2020/12/02 00:14:31;;;;;;;1.73;1.58;;;0.70;93.10;;;;;;5069697;28;20074;-86
2020/12/02 00:16:57;;;;;;;3.03;2.35;;;0.80;99.90;;;;;;5068933;28;20117;-87
2020/12/02 00:19:24;;;;;;;0.82;0.82;;;0.90;99.90;;;;;;5069845;28;20086;-87
2020/12/02 00:22:12;;;;;;;0.75;0.75;;;1.10;99.90;;;;;;5068915;28;20025;-87
2020/12/02 00:24:39;;;;;;;0.60;0.60;;;1.10;99.90;;;;;;5070234;28;20067;-87
2020/12/02 00:27:11;;;;;;;0.20;0.20;;;1.00;99.90;;;;;;5069837;28;20607;-87
2020/12/02 00:29:36;;;;;;;0.60;0.60;;;0.80;99.90;;;;;;5085125;28;20037;-87
2020/12/02 00:32:03;;;;;;;0.40;0.40;;;0.90;99.90;;;;;;5070495;28;20540;-87
2020/12/02 00:34:28;;;;;;;1.27;1.17;;;0.80;99.90;;;;;;5070363;28;20032;-87
2020/12/02 00:36:54;;;;;;;1.45;1.20;;;0.80;99.90;;;;;;5069979;28;20396;-87
2020/12/02 00:39:20;;;;;;;0.10;0.10;;;0.70;99.90;;;;;;5069394;28;20133;-86
2020/12/02 00:41:47;;;;;;;1.13;0.77;;;0.80;99.90;;;;;;5070190;28;20032;-86
2020/12/02 00:44:13;;;;;;;;;;;0.80;99.90;;;;;;5070498;28;20024;-86
2020/12/02 00:46:39;;;;;;;0.30;0.30;;;0.90;99.90;;;;;;5069507;28;19908;-86
2020/12/02 00:49:05;;;;;;;0.50;0.50;;;1.00;99.90;;;;;;5069486;28;20530;-86
2020/12/02 00:51:31;;;;;;;0.63;0.63;;;1.00;99.90;;;;;;5070279;28;20036;-86
2020/12/02 00:53:57;;;;;;;1.85;0.52;;;0.90;99.90;;;;;;5084898;28;20025;-86
2020/12/02 00:56:23;;;;;;;0.25;0.25;;;0.90;99.90;;;;;;5070128;28;20105;-87
2020/12/02 00:59:16;;;;;;;0.20;0.20;;;0.90;99.90;;;;;;5069084;28;20032;-86
2020/12/02 01:01:51;;;;;;;0.17;0.17;;;0.90;99.90;;;;;;5057456;28;20107;-87
2020/12/02 01:04:19;;;;;;;0.85;0.85;;;1.00;99.90;;;;;;5070207;28;20488;-86
2020/12/02 01:06:47;;;;;;;0.20;0.20;;;1.00;99.90;;;;;;5067844;28;20040;-86
2020/12/02 01:09:15;;;;;;;0.30;0.30;;;1.00;99.90;;;;;;5067965;28;20029;-87
2020/12/02 01:11:42;;;;;;;0.20;0.20;;;0.90;99.90;;;;;;5064346;28;20043;-87
2020/12/02 01:14:12;;;;;;;0.65;0.65;;;0.70;99.90;;;;;;5058091;28;20024;-87
2020/12/02 01:16:42;;;;;;;0.20;0.20;;;0.70;99.90;;;;;;5068278;28;20048;-86
2020/12/02 01:19:13;;;;;;;0.55;0.45;;;0.70;99.90;;;;;;5061326;28;20034;-87
2020/12/02 01:21:55;;;;;;;0.17;0.17;;;0.80;99.90;;;;;;5068105;28;20020;-86
2020/12/02 01:24:29;;;;;;;0.32;0.32;;;0.70;99.90;;;;;;5068987;28;20488;-87
2020/12/02 01:27:05;;;;;;;1.38;1.33;;;0.70;99.90;;;;;;5068460;28;20817;-86
2020/12/02 01:29:31;;;;;;;0.25;0.25;;;0.80;99.90;;;;;;5060102;28;20066;-87
2020/12/02 01:31:58;;;;;;;1.25;0.68;;;0.90;99.90;;;;;;5063005;28;20037;-86
2020/12/02 01:34:25;;;;;;;0.35;0.35;;;1.00;99.90;;;;;;5069300;28;20025;-87
2020/12/02 01:36:58;;;;;;;;;;;1.20;99.90;;;;;;5068681;28;20033;-88
2020/12/02 01:39:28;;;;;;;0.10;0.10;;;1.40;99.90;;;;;;5068302;28;19957;-87
2020/12/02 01:41:54;;;;;;;27.38;0.95;;;1.50;99.90;;;;;;5068789;28;20016;-87
2020/12/02 01:44:20;;;;;;;0.28;0.28;;;1.70;99.90;;;;;;5068554;28;20044;-87
2020/12/02 01:47:15;;;;;;;0.47;0.47;;;1.70;99.90;;;;;;5067355;28;20021;-86
2020/12/02 01:50:06;;;;;;;0.20;0.20;;;1.80;99.90;;;;;;5064328;28;20055;-86
2020/12/02 01:53:02;;;;;;;0.17;0.17;;;1.90;99.90;;;;;;5067023;28;20086;-87
2020/12/02 01:55:39;;;;;;;0.25;0.25;;;2.10;99.90;;;;;;5067796;28;20806;-86
2020/12/02 01:58:14;;;;;;;0.30;0.30;;;2.10;99.90;;;;;;5057249;28;20035;-86
2020/12/02 02:00:42;;;;;;;0.20;0.20;;;2.20;80.30;;;;;;5070307;28;20033;-86
2020/12/02 02:03:16;;;;;;;0.30;0.30;;;2.20;48.30;;;;;;5047015;28;20463;-86
2020/12/02 02:05:45;;;;;;;0.75;0.75;;;2.20;25.50;;;;;;5064285;28;20104;-87
2020/12/02 02:08:12;;;;;;;0.10;0.10;;;2.20;8.70;;;;;;5066173;28;20036;-86
2020/12/02 02:10:41;;;;;;;1.15;1.10;;;2.20;1.00;;;;;;5066528;28;20035;-86
2020/12/02 02:13:35;;;;;;;0.20;0.20;;;2.30;1.00;;;;;;5065876;28;20032;-86
2020/12/02 02:16:07;;;;;;;0.45;0.45;;;2.30;1.00;;;;;;5066699;28;20123;-85
2020/12/02 02:18:33;;;;;;;0.40;0.40;;;2.30;1.00;;;;;;5066495;28;20418;-86
2020/12/02 02:21:16;;;;;;;0.10;0.10;;;2.20;1.00;;;;;;5067210;28;20025;-86
2020/12/02 02:23:43;;;;;;;0.40;0.40;;;2.10;1.00;;;;;;5065789;28;20028;-86
2020/12/02 02:26:09;;;;;;;0.30;0.30;;;2.10;1.00;;;;;;5068414;28;20152;-86
2020/12/02 02:28:37;;;;;;;0.20;0.20;;;2.10;1.00;;;;;;5066747;28;20116;-86
2020/12/02 02:31:12;;;;;;;0.10;0.10;;;2.10;1.00;;;;;;5084034;28;20027;-86
2020/12/02 02:33:40;;;;;;;0.28;0.28;;;2.10;1.00;;;;;;5066970;28;20487;-86
2020/12/02 02:36:11;;;;;;;0.30;0.30;;;2.10;1.00;;;;;;5075622;28;20085;-86
2020/12/02 02:38:37;;;;;;;0.20;0.20;;;2.00;1.00;;;;;;5073482;28;20029;-86
2020/12/02 02:41:03;;;;;;;0.20;0.20;;;2.10;1.00;;;;;;5065507;28;20468;-86
2020/12/02 02:43:29;;;;;;;0.30;0.30;;;2.10;1.00;;;;;;5068033;28;20050;-86
2020/12/02 02:45:54;;;;;;;0.30;0.30;;;2.00;1.00;;;;;;5067891;28;20766;-86
2020/12/02 02:48:20;;;;;;;0.10;0.10;;;2.00;1.00;;;;;;5067753;28;20047;-87
2020/12/02 02:50:46;;;;;;;0.20;0.20;;;1.90;1.00;;;;;;5066420;28;20039;-87
2020/12/02 02:53:19;;;;;;;0.52;0.52;;;1.90;1.00;;;;;;5070992;28;20358;-86
2020/12/02 02:55:45;;;;;;;0.68;0.68;;;1.90;2.80;;;;;;5070441;28;20024;-86
2020/12/02 02:58:11;;;;;;;0.40;0.40;;;1.80;1.70;;;;;;5053480;28;20029;-85
2020/12/02 03:00:38;;;;;;;1.47;1.37;;;1.70;1.40;;;;;;5065576;28;20037;-86
2020/12/02 03:03:08;;;;;;;0.10;0.10;;;1.80;11.10;;;;;;5071995;28;20255;-86
2020/12/02 03:05:34;;;;;;;0.13;0.13;;;1.80;11.50;;;;;;5071341;28;20522;-85
2020/12/02 03:08:03;;;;;;;0.13;0.13;;;1.80;18.00;;;;;;5069541;28;20032;-86
2020/12/02 03:10:33;;;;;;;0.10;0.10;;;1.80;9.70;;;;;;5070318;28;20901;-85
2020/12/02 03:13:14;;;;;;;0.10;0.10;;;1.80;11.60;;;;;;5058283;28;20025;-86
2020/12/02 03:15:40;;;;;;;0.20;0.20;;;1.80;13.00;;;;;;5056599;28;20032;-85
2020/12/02 03:18:07;;;;;;;0.20;0.20;;;1.80;13.20;;;;;;5065197;28;20048;-86
2020/12/02 03:20:35;;;;;;;;;;;1.80;11.90;;;;;;5071160;28;20024;-86
2020/12/02 03:23:01;;;;;;;0.17;0.17;;;1.90;2.10;;;;;;5070051;28;19946;-86
2020/12/02 03:25:31;;;;;;;0.60;0.60;;;1.90;1.00;;;;;;5053464;28;20055;-85
2020/12/02 03:27:57;;;;;;;0.10;0.10;;;1.80;1.00;;;;;;5053058;28;20021;-85
2020/12/02 03:30:23;;;;;;;0.40;0.40;;;1.80;1.00;;;;;;5068193;28;20059;-86
2020/12/02 03:32:49;;;;;;;0.20;0.20;;;1.80;1.00;;;;;;5071421;28;20052;-87
2020/12/02 03:35:15;;;;;;;0.40;0.40;;;1.90;1.00;;;;;;5070824;28;20132;-85
2020/12/02 03:37:41;;;;;;;0.70;0.70;;;1.80;1.00;;;;;;5070186;28;20027;-86
2020/12/02 03:40:08;;;;;;;0.40;0.40;;;1.80;1.00;;;;;;5071047;28;20033;-85
2020/12/02 03:42:34;;;;;;;0.13;0.13;;;1.80;1.00;;;;;;5081202;28;20021;-86
2020/12/02 03:45:00;;;;;;;0.10;0.10;;;1.80;1.00;;;;;;5059969;28;20064;-86
2020/12/02 03:47:27;;;;;;;0.45;0.38;;;1.80;1.00;;;;;;5065801;28;20028;-85
2020/12/02 03:49:54;;;;;;;0.13;0.13;;;1.90;1.00;;;;;;5067075;28;20055;-86
2020/12/02 03:52:20;;;;;;;0.82;0.82;;;1.90;1.00;;;;;;5068569;28;20040;-87
2020/12/02 03:54:45;;;;;;;0.32;0.32;;;1.90;1.00;;;;;;5069418;28;20131;-86
2020/12/02 03:57:11;;;;;;;2.10;1.30;;;1.90;1.00;;;;;;5070882;28;20028;-86
2020/12/02 03:59:37;;;;;;;1.05;0.98;;;1.90;1.00;;;;;;5069902;28;20047;-86
2020/12/02 04:02:03;;;;;;;0.52;0.52;;;1.90;1.00;;;;;;5067927;28;20500;-86
2020/12/02 04:04:29;;;;;;;0.73;0.73;;;1.80;1.00;;;;;;5069881;28;20043;-86
2020/12/02 04:06:55;;;;;;;1.05;0.95;;;1.80;1.00;;;;;;5069734;28;20029;-85
2020/12/02 04:09:20;;;;;;;0.15;0.15;;;1.80;1.00;;;;;;5069012;28;20037;-86
2020/12/02 04:11:46;;;;;;;0.45;0.45;;;1.90;1.00;;;;;;5067790;28;20032;-86
2020/12/02 04:14:12;;;;;;;0.80;0.80;;;2.00;1.00;;;;;;5068858;28;20024;-87
2020/12/02 04:16:38;;;;;;;0.43;0.43;;;2.00;1.00;;;;;;5068307;28;20044;-87
2020/12/02 04:19:04;;;;;;;0.20;0.20;;;2.10;1.00;;;;;;5070219;28;20108;-87
2020/12/02 04:21:31;;;;;;;6.15;1.85;;;2.10;1.00;;;;;;5070420;28;21853;-87
2020/12/02 04:23:57;;;;;;;0.20;0.20;;;2.00;1.00;;;;;;5070393;28;20559;-86
2020/12/02 04:26:26;;;;;;;0.63;0.63;;;2.00;1.00;;;;;;5069414;28;20020;-87
2020/12/02 04:28:52;;;;;;;0.20;0.20;;;2.00;1.00;;;;;;5063726;28;20522;-86
2020/12/02 04:31:18;;;;;;;0.20;0.20;;;1.90;1.00;;;;;;5085328;28;20107;-85
2020/12/02 04:33:44;;;;;;;0.97;0.97;;;1.90;1.00;;;;;;5069577;28;20124;-85
2020/12/02 04:36:10;;;;;;;0.43;0.43;;;1.90;1.00;;;;;;5069021;28;20032;-85
2020/12/02 04:38:37;;;;;;;2.13;1.33;;;1.90;1.00;;;;;;5065299;28;20033;-85
2020/12/02 04:41:10;;;;;;;6.03;1.17;;;1.90;1.00;;;;;;5066848;28;20032;-86
2020/12/02 04:43:49;;;;;;;0.20;0.20;;;1.90;1.00;;;;;;5056607;28;20489;-86
2020/12/02 04:46:31;;;;;;;0.22;0.22;;;2.00;1.00;;;;;;5067583;28;20024;-86
2020/12/02 04:49:15;;;;;;;0.10;0.10;;;2.10;1.00;;;;;;5069328;28;20123;-86
2020/12/02 04:51:41;;;;;;;5.75;1.55;;;2.20;1.00;;;;;;5076229;28;20068;-86
2020/12/02 04:54:08;;;;;;;0.10;0.10;;;2.30;1.00;;;;;;5063869;28;20050;-87
2020/12/02 04:56:40;;;;;;;2.97;1.33;;;2.40;1.00;;;;;;5068056;28;20043;-86
2020/12/02 04:59:06;;;;;;;0.45;0.45;;;2.50;1.00;;;;;;5083036;28;20412;-87
2020/12/02 05:01:35;;;;;;;0.30;0.30;;;2.50;1.00;;;;;;5066061;28;20028;-86
2020/12/02 05:04:37;;;;;;;0.60;0.60;;;2.60;1.00;;;;;;5074422;28;20059;-86
2020/12/02 05:07:16;;;;;;;0.38;0.38;;;2.60;1.00;;;;;;5079907;28;20568;-86
2020/12/02 05:10:06;;;;;;;0.40;0.40;;;2.60;1.00;;;;;;5084743;28;20054;-86
2020/12/02 05:12:41;;;;;;;1.23;0.85;;;2.50;1.00;;;;;;5085656;28;20078;-86
2020/12/02 05:15:29;;;;;;;0.20;0.20;;;2.50;1.00;;;;;;5071054;28;20032;-86
2020/12/02 05:18:10;;;;;;;0.43;0.43;;;2.50;1.00;;;;;;5086081;28;20264;-85
2020/12/02 05:20:36;;;;;;;0.30;0.30;;;2.60;1.00;;;;;;5075134;28;20119;-86
2020/12/02 05:23:17;;;;;;;0.10;0.10;;;2.60;1.00;;;;;;5056829;28;20576;-86
2020/12/02 05:25:43;;;;;;;0.80;0.80;;;2.80;1.00;;;;;;5071754;28;20024;-87
2020/12/02 05:28:26;;;;;;;0.30;0.30;;;2.60;1.00;;;;;;5085793;28;20073;-86
2020/12/02 05:31:12;;;;;;;0.10;0.10;;;2.70;1.00;;;;;;5069008;28;20048;-87
2020/12/02 05:33:38;;;;;;;0.75;0.60;;;2.70;1.00;;;;;;5085665;28;20024;-86
2020/12/02 05:36:22;;;;;;;0.15;0.15;;;2.60;1.00;;;;;;5086361;28;20115;-86
2020/12/02 05:38:55;;;;;;;0.63;0.47;;;2.80;1.00;;;;;;5085033;28;20558;-87
2020/12/02 05:41:23;;;;;;;0.70;0.70;;;2.80;1.00;;;;;;5085698;28;20034;-87
2020/12/02 05:43:56;;;;;;;0.10;0.10;;;2.80;1.00;;;;;;5064795;28;20043;-87
2020/12/02 05:47:00;;;;;;;0.43;0.40;;;2.90;1.00;;;;;;5068795;28;20400;-87
2020/12/02 05:49:39;;;;;;;0.40;0.40;;;3.00;1.00;;;;;;5066060;28;20097;-87
2020/12/02 05:52:29;;;;;;;0.47;0.47;;;2.90;1.00;;;;;;5065077;28;20033;-88
2020/12/02 05:55:03;;;;;;;0.20;0.20;;;3.00;1.00;;;;;;5067412;28;20025;-88
2020/12/02 05:57:29;;;;;;;4.63;2.80;;;3.00;1.00;;;;;;5062585;28;20063;-88
2020/12/02 05:59:58;;;;;;;0.63;0.63;;;3.10;1.00;;;;;;5054083;28;20132;-88
2020/12/02 06:02:25;;;;;;;0.73;0.73;;;3.10;1.00;;;;;;5057742;28;20028;-90
2020/12/02 06:04:52;;;;;;;;;;;3.10;1.00;;;;;;5062002;28;20017;-89
2020/12/02 06:07:19;;;;;;;0.22;0.22;;;3.00;1.00;;;;;;5067070;28;19908;-89
2020/12/02 06:09:46;;;;;;;;;;;3.10;1.00;;;;;;5048888;28;20033;-89
2020/12/02 06:12:19;;;;;;;0.10;0.10;;;3.10;1.00;;;;;;5067699;28;19951;-89
2020/12/02 06:14:46;;;;;;;0.10;0.10;;;3.10;1.00;;;;;;5067355;28;20063;-90
2020/12/02 06:17:30;;;;;;;0.10;0.10;;;3.10;1.00;;;;;;5068052;28;20048;-85
2020/12/02 06:19:57;;;;;;;0.47;0.47;;;3.00;1.00;;;;;;5063045;28;20526;-89
2020/12/02 06:22:43;;;;;;;0.93;0.93;;;3.00;1.00;;;;;;5084490;28;20408;-89
2020/12/02 06:25:43;;;;;;;0.20;0.20;;;2.90;1.00;;;;;;5067331;28;20040;-89
2020/12/02 06:28:10;;;;;;;0.13;0.13;;;2.80;1.00;;;;;;5059066;28;20024;-89
2020/12/02 06:30:36;;;;;;;0.38;0.38;;;2.70;1.00;;;;;;5061070;28;20029;-89
2020/12/02 06:33:29;;;;;;;4.73;1.50;;;2.70;1.00;;;;;;5061595;28;20029;-89
2020/12/02 06:36:21;;;;;;;0.73;0.73;;;2.80;1.00;;;;;;5065289;28;20378;-88
2020/12/02 06:38:50;;;;;;;1.00;0.75;;;2.80;1.00;;;;;;5074810;28;20107;-87
2020/12/02 06:41:28;;;;;;;0.20;0.20;;;3.00;1.00;;;;;;5055041;28;20696;-90
2020/12/02 06:44:16;;;;;;;0.68;0.43;;;3.20;1.00;;;;;;5059727;28;20021;-90
2020/12/02 06:46:54;;;;;;;0.88;0.88;;;3.20;1.00;;;;;;5060664;28;20020;-90
2020/12/02 06:49:25;;;;;;;0.47;0.20;;;3.30;1.00;;;;;;5064501;28;20128;-89
2020/12/02 06:52:07;;;;;;;0.68;0.68;;;3.30;1.00;;;;;;5065371;28;20571;-88
2020/12/02 06:54:37;;;;;;;0.10;0.10;;;3.30;1.00;;;;;;5064413;28;20035;-88
2020/12/02 06:57:12;;;;;;;0.55;0.55;;;4.10;1.00;;;;;;5066225;28;20043;-87
2020/12/02 06:59:58;;;;;;;0.20;0.20;;;3.90;99.90;;;;;;5065968;28;20024;-88
2020/12/02 07:02:39;;;;;;;1.08;1.08;;;3.80;99.90;;;;;;5064221;28;20185;-88
2020/12/02 07:05:10;;;;;;;0.30;0.30;;;3.50;99.90;;;;;;5062409;28;20059;-88
2020/12/02 07:07:36;;;;;;;1.83;1.73;;;4.00;99.90;;;;;;5063403;28;20488;-87
2020/12/02 07:10:03;;;;;;;1.88;1.77;;;3.50;99.90;;;;;;5064585;28;20032;-86
2020/12/02 07:12:30;;;;;;;1.97;1.87;;;3.70;99.90;;;;;;5067067;28;20029;-86
2020/12/02 07:15:00;;;;;;;0.90;0.90;;;3.80;99.90;;;;;;5051125;28;20366;-87
2020/12/02 07:17:27;;;;;;;2.33;1.67;;;3.30;99.90;;;;;;5066829;28;20182;-86
2020/12/02 07:19:53;;;;;;;4.97;4.63;;;4.00;99.90;;;;;;5066651;28;20029;-86
2020/12/02 07:22:25;;;;;;;4.18;3.83;;;3.60;99.90;;;;;;5067052;28;20027;-86
2020/12/02 07:24:58;;;;;;;3.22;2.03;;;3.40;99.90;;;;;;5067128;28;20039;-86
2020/12/02 07:27:24;;;;;;;2.15;1.95;;;3.50;99.90;;;;;;5065761;28;20572;-86
2020/12/02 07:30:03;;;;;;;0.80;0.80;;;3.30;99.90;;;;;;5066416;28;20150;-87
2020/12/02 07:32:29;;;;;;;0.65;0.65;;;3.10;99.90;;;;;;5067562;28;20675;-86
2020/12/02 07:35:01;;;;;;;1.08;1.08;;;3.10;99.90;;;;;;5052692;28;20032;-86
2020/12/02 07:37:27;;;;;;;1.90;1.80;;;3.00;99.90;;;;;;5067526;28;20040;-86
2020/12/02 07:39:59;;;;;;;2.33;2.13;;;3.20;99.90;;;;;;5070975;28;20039;-86
2020/12/02 07:42:33;;;;;;;0.90;0.90;;;3.20;99.90;;;;;;5070544;28;20024;-86
2020/12/02 07:45:14;;;;;;;1.17;1.13;;;3.30;99.90;;;;;;5068800;28;20033;-87
2020/12/02 07:47:55;;;;;;;2.45;2.20;;;3.30;99.90;;;;;;5058033;28;20020;-85
2020/12/02 07:50:43;;;;;;;0.77;0.77;;;3.40;99.90;;;;;;5066306;28;20103;-86
2020/12/02 07:53:33;;;;;;;0.10;0.10;;;3.50;99.90;;;;;;5084574;28;20554;-87
2020/12/02 07:56:00;;;;;;;2.15;2.05;;;3.50;99.90;;;;;;5070588;28;20636;-86
2020/12/02 07:58:40;;;;;;;6.00;2.00;;;3.50;99.90;;;;;;5070011;28;20073;-86
2020/12/02 08:01:15;;;;;;;0.25;0.25;;;3.80;99.90;;;;;;5065834;28;20883;-86
2020/12/02 08:03:41;;;;;;;0.20;0.20;;;4.30;99.90;;;;;;5072186;28;20023;-90
2020/12/02 08:06:10;;;;;;;0.57;0.57;;;4.30;99.90;;;;;;5073467;28;20108;-90
2020/12/02 08:08:36;;;;;;;1.15;1.05;;;4.30;99.90;;;;;;5073261;28;20054;-90
2020/12/02 08:11:23;;;;;;;0.43;0.43;;;4.30;99.90;;;;;;5086430;28;20024;-90
2020/12/02 08:13:57;;;;;;;0.20;0.20;;;4.20;99.90;;;;;;5070791;28;20032;-90
2020/12/02 08:16:38;;;;;;;0.35;0.35;;;4.20;99.90;;;;;;5088983;28;20029;-90
2020/12/02 08:19:05;;;;;;;0.55;0.55;;;4.30;99.90;;;;;;5072602;28;20074;-90
2020/12/02 08:21:32;;;;;;;0.43;0.43;;;4.40;99.90;;;;;;5071602;28;20067;-89
2020/12/02 08:24:33;;;;;;;0.38;0.38;;;4.40;99.90;;;;;;5073307;28;20062;-90
2020/12/02 08:27:00;;;;;;;7.45;0.98;;;4.40;99.90;;;;;;5093323;28;20028;-90
2020/12/02 08:29:34;;;;;;;;;;;4.60;99.90;;;;;;5072227;28;20021;-90
2020/12/02 08:32:22;;;;;;;0.30;0.30;;;4.50;99.90;;;;;;5068921;28;19916;-89
2020/12/02 08:34:48;;;;;;;0.30;0.30;;;4.50;99.90;;;;;;5084614;28;20686;-89
2020/12/02 08:37:38;;;;;;;0.45;0.35;;;4.40;99.90;;;;;;5057188;28;20172;-89
2020/12/02 08:40:24;;;;;;;0.10;0.10;;;4.60;99.90;;;;;;5072869;28;20036;-90
2020/12/02 08:42:50;;;;;;;0.35;0.25;;;4.80;99.90;;;;;;5072051;28;20032;-88
2020/12/02 08:45:20;;;;;;;0.35;0.35;;;4.60;99.90;;;;;;5072004;28;20498;-89
2020/12/02 08:47:57;;;;;;;0.22;0.22;;;4.70;99.90;;;;;;5072167;28;20460;-89
2020/12/02 08:50:31;;;;;;;0.10;0.10;;;5.10;99.90;;;;;;5071450;28;20032;-89
2020/12/02 08:52:59;;;;;;;0.10;0.10;;;4.90;99.90;;;;;;5080829;28;20024;-90
2020/12/02 08:55:26;;;;;;;0.68;0.68;;;5.00;99.90;;;;;;5062734;28;20043;-89
2020/12/02 08:57:52;;;;;;;1.17;0.80;;;5.30;99.90;;;;;;5053458;28;20161;-90
2020/12/02 09:00:20;;;;;;;1.02;1.00;;;5.30;99.90;;;;;;5060783;28;20040;-90
2020/12/02 09:02:47;;;;;;;0.20;0.20;;;5.20;99.90;;;;;;5073449;28;20132;-89
2020/12/02 09:05:12;;;;;;;0.17;0.17;;;5.20;99.90;;;;;;5071073;28;20020;-90
2020/12/02 09:07:38;;;;;;;1.02;1.02;;;5.10;99.90;;;;;;5084792;28;20762;-90
2020/12/02 09:10:05;;;;;;;0.30;0.30;;;5.30;99.90;;;;;;5069738;28;20115;-90
2020/12/02 09:12:31;;;;;;;;;;;5.20;99.90;;;;;;5086899;28;20032;-91
2020/12/02 09:14:57;;;;;;;0.17;0.17;;;5.40;99.90;;;;;;5052002;28;19911;-91
2020/12/02 09:17:24;;;;;;;0.30;0.30;;;5.60;99.90;;;;;;5059248;28;20049;-90
2020/12/02 09:19:52;;;;;;;0.10;0.10;;;5.40;99.90;;;;;;5086401;28;20036;-91
2020/12/02 09:22:19;;;;;;;0.60;0.60;;;5.60;99.90;;;;;;5069267;28;20044;-90
2020/12/02 09:24:46;;;;;;;0.50;0.50;;;5.40;99.90;;;;;;5068875;28;20051;-90
2020/12/02 09:27:12;;;;;;;0.17;0.17;;;5.50;99.90;;;;;;5056096;28;20476;-90
2020/12/02 09:29:38;;;;;;;0.32;0.32;;;5.60;99.90;;;;;;5069671;28;20293;-90
2020/12/02 09:32:04;;;;;;;0.55;0.55;;;5.70;99.90;;;;;;5086085;28;20564;-90
2020/12/02 09:34:30;;;;;;;0.20;0.20;;;5.70;99.90;;;;;;5085927;28;20094;-90
2020/12/02 09:36:57;;;;;;;0.10;0.10;;;5.90;99.90;;;;;;5086845;28;20029;-90
2020/12/02 09:39:22;;;;;;;0.65;0.47;;;6.10;99.90;;;;;;5086977;28;20035;-90
2020/12/02 09:41:48;;;;;;;0.20;0.20;;;6.40;99.90;;;;;;5073733;28;20025;-90
2020/12/02 09:44:40;;;;;;;0.32;0.32;;;6.30;99.90;;;;;;5090326;28;20646;-91
2020/12/02 09:47:12;;;;;;;0.50;0.50;;;6.90;99.90;;;;;;5072955;28;20476;-91
2020/12/02 09:49:40;;;;;;;0.10;0.10;;;6.30;99.90;;;;;;5060191;28;20091;-90
2020/12/02 09:52:09;;;;;;;0.28;0.28;;;6.10;99.90;;;;;;5051102;28;20060;-90
2020/12/02 09:54:42;;;;;;;0.30;0.30;;;6.10;99.90;;;;;;5062447;28;20477;-91
2020/12/02 09:57:15;;;;;;;0.85;0.30;;;6.00;99.90;;;;;;5061681;28;20033;-90
2020/12/02 09:59:41;;;;;;;0.20;0.20;;;6.00;99.90;;;;;;5085696;28;20090;-90
2020/12/02 10:02:43;;;;;;;0.30;0.30;;;5.80;99.90;;;;;;5068926;28;20028;-90
2020/12/02 10:05:33;;;;;;;0.00;0.00;;;5.70;99.90;;;;;;5056293;28;20043;-91
2020/12/02 10:08:17;;;;;;;0.10;0.10;;;5.60;99.90;;;;;;5067836;28;20021;-91
2020/12/02 10:10:50;;;;;;;0.22;0.22;;;5.70;99.90;;;;;;5071912;28;20025;-90
2020/12/02 10:13:35;;;;;;;0.40;0.40;;;6.80;99.90;;;;;;5061837;28;20047;-90
2020/12/02 10:16:46;;;;;;;0.10;0.10;;;7.80;99.90;;;;;;5064599;28;20079;-90
2020/12/02 10:19:34;;;;;;;0.15;0.15;;;11.40;99.90;;;;;;5087075;28;20084;-90
2020/12/02 10:22:19;;;;;;;0.20;0.20;;;12.00;99.90;;;;;;5087099;28;20515;-90
2020/12/02 10:25:03;;;;;;;0.52;0.40;;;13.70;99.90;;;;;;5069316;28;20046;-89
2020/12/02 10:27:47;;;;;;;0.10;0.10;;;12.70;99.90;;;;;;5086999;28;20043;-90
2020/12/02 10:30:19;;;;;;;0.20;0.20;;;9.80;99.90;;;;;;5069614;28;20028;-90
2020/12/02 10:33:22;;;;;;;0.50;0.45;;;8.30;99.90;;;;;;5086705;28;20054;-90
2020/12/02 10:35:48;;;;;;;0.10;0.10;;;7.70;99.90;;;;;;5073904;28;20028;-89
2020/12/02 10:38:38;;;;;;;0.10;0.10;;;7.30;99.90;;;;;;5086648;28;20051;-90
2020/12/02 10:41:38;;;;;;;0.20;0.20;;;7.30;99.90;;;;;;5069936;28;20114;-91
2020/12/02 10:44:33;;;;;;;0.22;0.22;;;7.10;99.90;;;;;;5086964;28;20402;-90
2020/12/02 10:47:27;;;;;;;0.57;0.57;;;6.80;99.90;;;;;;5069903;28;20503;-90
2020/12/02 10:49:54;;;;;;;0.00;0.00;;;6.60;99.90;;;;;;5086337;28;20064;-90
2020/12/02 10:52:20;;;;;;;0.10;0.10;;;6.50;99.90;;;;;;5069745;28;20059;-90
2020/12/02 10:54:48;;;;;;;0.10;0.10;;;6.30;99.90;;;;;;5069396;28;20036;-90
2020/12/02 10:57:18;;;;;;;0.30;0.30;;;6.30;99.90;;;;;;5067474;28;20386;-90
2020/12/02 10:59:45;;;;;;;0.10;0.10;;;6.30;99.90;;;;;;5068103;28;20024;-90
2020/12/02 11:02:17;;;;;;;0.10;0.10;;;6.20;99.90;;;;;;5069186;28;20029;-90
2020/12/02 11:04:46;;;;;;;2.85;0.80;;;6.30;99.90;;;;;;5065372;28;20021;-90
2020/12/02 11:07:50;;;;;;;0.10;0.10;;;6.40;99.90;;;;;;5058349;28;20027;-90
2020/12/02 11:10:27;;;;;;;0.10;0.10;;;6.50;99.90;;;;;;5068035;28;20520;-92
2020/12/02 11:12:56;;;;;;;0.10;0.10;;;6.90;99.90;;;;;;5086876;28;20029;-91
2020/12/02 11:15:27;;;;;;;0.35;0.32;;;7.00;99.90;;;;;;5065714;28;20531;-90
2020/12/02 11:18:16;;;;;;;0.17;0.17;;;7.20;99.90;;;;;;5064881;28;20041;-91
2020/12/02 11:20:56;;;;;;;0.10;0.10;;;7.40;99.90;;;;;;5070606;28;20036;-91
2020/12/02 11:23:42;;;;;;;0.10;0.10;;;7.10;99.90;;;;;;5072715;28;20111;-90
2020/12/02 11:26:32;;;;;;;0.73;0.47;;;7.30;99.90;;;;;;5070005;28;20021;-90
2020/12/02 11:29:00;;;;;;;0.17;0.17;;;7.10;99.90;;;;;;5064996;28;20170;-89
2020/12/02 11:31:42;;;;;;;0.10;0.10;;;7.30;99.90;;;;;;5070883;28;20033;-90
2020/12/02 11:34:50;;;;;;;0.10;0.10;;;10.40;99.90;;;;;;5067750;28;20021;-89
2020/12/02 11:37:38;;;;;;;0.20;0.20;;;12.30;99.90;;;;;;5067111;28;20461;-88
2020/12/02 11:40:19;;;;;;;0.10;0.10;;;11.60;99.90;;;;;;5081214;28;20311;-90
2020/12/02 11:43:18;;;;;;;0.00;0.00;;;11.30;99.90;;;;;;5071213;28;20017;-90
2020/12/02 11:45:45;;;;;;;0.10;0.10;;;8.90;99.90;;;;;;5063468;28;20037;-90
2020/12/02 11:48:34;;;;;;;0.10;0.10;;;8.80;99.90;;;;;;5059444;28;20990;-90
2020/12/02 11:51:22;;;;;;;0.10;0.10;;;9.20;99.90;;;;;;5064532;28;20047;-89
2020/12/02 11:53:56;;;;;;;0.10;0.10;;;7.60;99.90;;;;;;5051622;28;20024;-90
2020/12/02 11:56:36;;;;;;;0.10;0.10;;;7.60;99.90;;;;;;5051373;28;20032;-90
2020/12/02 11:59:08;;;;;;;0.30;0.25;;;7.90;99.90;;;;;;5068035;28;20028;-89
2020/12/02 12:01:52;;;;;;;0.10;0.10;;;8.20;99.90;;;;;;5051003;28;20058;-89
2020/12/02 12:04:33;;;;;;;0.00;0.00;;;8.10;99.90;;;;;;5045014;28;20055;-90
2020/12/02 12:07:25;;;;;;;0.28;0.28;;;7.40;99.90;;;;;;5068305;28;20593;-89
2020/12/02 12:10:18;;;;;;;0.20;0.20;;;7.30;99.90;;;;;;5050727;28;20032;-91
2020/12/02 12:12:56;;;;;;;0.52;0.52;;;7.50;99.90;;;;;;5052033;28;20730;-90
2020/12/02 12:15:45;;;;;;;0.55;0.55;;;7.40;99.90;;;;;;5062098;28;20045;-89
2020/12/02 12:18:18;;;;;;;0.20;0.20;;;7.40;99.90;;;;;;5064464;28;20052;-90
2020/12/02 12:20:51;;;;;;;0.13;0.13;;;7.50;99.90;;;;;;5050521;28;20036;-89
2020/12/02 12:23:50;;;;;;;0.60;0.60;;;8.00;99.90;;;;;;5068910;28;20028;-89
2020/12/02 12:26:16;;;;;;;0.77;0.77;;;7.90;99.90;;;;;;5069243;28;20492;-89
2020/12/02 12:28:42;;;;;;;0.20;0.20;;;7.70;99.90;;;;;;5066585;28;20112;-89
2020/12/02 12:31:15;;;;;;;0.20;0.20;;;7.30;99.90;;;;;;5061206;28;20435;-89
2020/12/02 12:33:47;;;;;;;0.20;0.20;;;7.20;99.90;;;;;;5068336;28;20328;-89
2020/12/02 12:36:21;;;;;;;1.02;0.95;;;7.20;99.90;;;;;;5070065;28;20035;-89
2020/12/02 12:38:55;;;;;;;0.20;0.20;;;7.40;99.90;;;;;;5070263;28;20024;-89
2020/12/02 12:41:27;;;;;;;0.35;0.35;;;7.10;99.90;;;;;;5070372;28;20021;-89
2020/12/02 12:44:09;;;;;;;0.08;0.08;;;7.00;99.90;;;;;;5069750;28;20021;-88
2020/12/02 12:46:46;;;;;;;0.10;0.10;;;7.10;99.90;;;;;;5070485;28;20067;-90
2020/12/02 12:49:17;;;;;;;0.35;0.35;;;6.70;99.90;;;;;;5070122;28;20020;-89
2020/12/02 12:51:45;;;;;;;0.32;0.25;;;6.90;99.90;;;;;;5068607;28;20416;-89
2020/12/02 12:54:16;;;;;;;0.10;0.10;;;7.40;99.90;;;;;;5066275;28;20112;-90
2020/12/02 12:56:43;;;;;;;1.15;1.05;;;7.60;99.90;;;;;;5060208;28;20040;-89
2020/12/02 12:59:16;;;;;;;0.20;0.20;;;7.70;99.90;;;;;;5069846;28;20552;-90
2020/12/02 13:01:46;;;;;;;0.10;0.10;;;7.80;99.90;;;;;;5055299;28;20025;-90
2020/12/02 13:04:16;;;;;;;0.13;0.13;;;7.80;99.90;;;;;;5055297;28;20029;-89
2020/12/02 13:07:04;;;;;;;3.03;0.98;;;7.50;99.90;;;;;;5069605;28;20025;-89
2020/12/02 13:09:39;;;;;;;0.10;0.10;;;7.30;99.90;;;;;;5069711;28;20572;-90
2020/12/02 13:12:15;;;;;;;0.38;0.38;;;7.40;99.90;;;;;;5069628;28;20028;-89
2020/12/02 13:15:09;;;;;;;0.20;0.20;;;7.40;99.90;;;;;;5071104;28;20029;-90
2020/12/02 13:18:10;;;;;;;0.10;0.10;;;7.10;99.90;;;;;;5069819;28;20302;-90
2020/12/02 13:21:01;;;;;;;0.20;0.20;;;7.60;99.90;;;;;;5057681;28;20029;-90
2020/12/02 13:23:36;;;;;;;0.10;0.10;;;7.40;99.90;;;;;;5068366;28;20036;-90
2020/12/02 13:26:23;;;;;;;0.43;0.43;;;7.10;99.90;;;;;;5069265;28;20027;-90
2020/12/02 13:29:05;;;;;;;0.10;0.10;;;7.00;99.90;;;;;;5069408;28;20070;-89
2020/12/02 13:31:39;;;;;;;0.10;0.10;;;7.10;99.90;;;;;;5068205;28;20028;-89
2020/12/02 13:34:05;;;;;;;0.15;0.15;;;7.50;99.90;;;;;;5069315;28;20400;-90
2020/12/02 13:36:35;;;;;;;0.23;0.23;;;7.40;99.90;;;;;;5056370;28;20417;-89
2020/12/02 13:39:01;;;;;;;0.00;0.00;;;7.10;99.90;;;;;;5069053;28;20286;-90